Time;durP1;ratioP1;P1;durP2;ratioP2;P2;SDS_P1;SDS_P2;PMS_P1;PMS_P2;Temp;Humidity;BMP_temperature;BMP_pressure;BME280_temperature;BME280_humidity;BME280_pressure;Samples;Min_cycle;Max_cycle;Signal;HPM_P1;HPM_P2
2023/09/16 00:00:56;;;;;;;9.47;7.47;;;;;;;;;;5999139;23;20385;-87
2023/09/16 00:03:22;;;;;;;10.50;7.57;;;;;;;;;;5992000;23;20396;-87
2023/09/16 00:05:48;;;;;;;10.57;8.30;;;;;;;;;;5996175;23;20389;-87
2023/09/16 00:08:14;;;;;;;13.83;8.23;;;;;;;;;;6013686;23;20527;-87
2023/09/16 00:10:40;;;;;;;11.30;8.20;;;;;;;;;;6077113;23;20395;-87
2023/09/16 00:13:07;;;;;;;7.93;7.10;;;;;;;;;;6077468;23;20433;-88
2023/09/16 00:15:33;;;;;;;11.63;7.33;;;;;;;;;;6080396;23;20383;-87
2023/09/16 00:18:04;;;;;;;10.10;8.20;;;;;;;;;;6081707;23;20403;-87
2023/09/16 00:20:30;;;;;;;8.70;7.77;;;;;;;;;;6126296;23;20450;-87
2023/09/16 00:22:57;;;;;;;9.83;8.30;;;;;;;;;;6135116;23;20868;-87
2023/09/16 00:25:23;;;;;;;10.50;8.23;;;;;;;;;;6072818;23;20471;-87
2023/09/16 00:27:49;;;;;;;8.23;7.30;;;;;;;;;;6048513;23;20430;-87
2023/09/16 00:30:15;;;;;;;8.97;8.07;;;;;;;;;;6105509;23;20529;-88
2023/09/16 00:33:04;;;;;;;;;;;;;;;;;;;;;
2023/09/16 00:35:31;;;;;;;8.20;6.70;;;;;;;;;;6113309;23;20794;-87
2023/09/16 00:37:57;;;;;;;8.17;7.37;;;;;;;;;;6084328;23;20378;-87
2023/09/16 00:40:23;;;;;;;7.73;6.77;;;;;;;;;;6131357;23;20373;-87
2023/09/16 00:42:49;;;;;;;7.87;7.07;;;;;;;;;;6107334;23;20362;-87
2023/09/16 00:45:15;;;;;;;8.73;7.40;;;;;;;;;;6107443;23;20385;-86
2023/09/16 00:47:41;;;;;;;10.50;7.40;;;;;;;;;;6078923;23;20378;-87
2023/09/16 00:50:08;;;;;;;9.17;7.00;;;;;;;;;;6080846;23;20537;-87
2023/09/16 00:52:35;;;;;;;9.07;7.77;;;;;;;;;;6104612;23;20475;-87
2023/09/16 00:55:01;;;;;;;8.83;7.60;;;;;;;;;;6078935;23;20383;-86
2023/09/16 00:57:27;;;;;;;10.17;8.03;;;;;;;;;;6132920;23;20418;-86
2023/09/16 00:59:53;;;;;;;10.50;8.60;;;;;;;;;;6137068;23;20787;-86
2023/09/16 01:02:19;;;;;;;9.50;7.50;;;;;;;;;;6135147;23;20468;-85
2023/09/16 01:04:45;;;;;;;8.57;7.67;;;;;;;;;;6136349;23;20373;-88
2023/09/16 01:07:14;;;;;;;9.47;7.67;;;;;;;;;;6135315;23;20784;-87
2023/09/16 01:09:40;;;;;;;10.07;8.00;;;;;;;;;;6141123;23;20427;-87
2023/09/16 01:12:07;;;;;;;10.23;7.87;;;;;;;;;;6134795;23;20377;-87
2023/09/16 01:14:33;;;;;;;8.30;7.30;;;;;;;;;;6138107;23;20400;-87
2023/09/16 01:17:00;;;;;;;9.03;6.73;;;;;;;;;;6135768;23;20467;-87
2023/09/16 01:19:32;;;;;;;8.93;7.17;;;;;;;;;;6135698;23;20402;-87
2023/09/16 01:21:58;;;;;;;8.23;7.20;;;;;;;;;;6158691;23;20464;-87
2023/09/16 01:24:24;;;;;;;9.30;8.10;;;;;;;;;;6137416;23;20388;-87
2023/09/16 01:26:50;;;;;;;10.90;8.50;;;;;;;;;;6180136;23;20384;-87
2023/09/16 01:29:16;;;;;;;8.40;6.73;;;;;;;;;;6169175;23;20386;-87
2023/09/16 01:31:43;;;;;;;8.67;7.77;;;;;;;;;;6166506;23;20384;-87
2023/09/16 01:34:10;;;;;;;11.73;8.13;;;;;;;;;;6190744;23;20734;-87
2023/09/16 01:36:36;;;;;;;14.60;7.93;;;;;;;;;;6189039;23;20419;-87
2023/09/16 01:39:08;;;;;;;8.80;7.27;;;;;;;;;;6198059;23;20388;-87
2023/09/16 01:41:34;;;;;;;8.43;7.53;;;;;;;;;;6171702;23;20471;-87
2023/09/16 01:44:01;;;;;;;8.70;7.60;;;;;;;;;;6165834;23;20360;-87
2023/09/16 01:46:26;;;;;;;11.00;8.67;;;;;;;;;;6168508;23;20435;-87
2023/09/16 01:48:52;;;;;;;9.40;7.00;;;;;;;;;;6164110;23;20367;-88
2023/09/16 01:51:24;;;;;;;11.40;8.63;;;;;;;;;;6164801;23;20368;-87
2023/09/16 01:53:50;;;;;;;8.40;7.00;;;;;;;;;;6164964;23;20423;-86
2023/09/16 01:56:18;;;;;;;12.17;7.93;;;;;;;;;;6193005;23;20442;-88
2023/09/16 01:58:44;;;;;;;11.03;7.67;;;;;;;;;;6165708;23;20392;-88
2023/09/16 02:01:11;;;;;;;13.10;6.37;;;;;;;;;;6196124;23;20440;-88
2023/09/16 02:03:37;;;;;;;9.33;7.30;;;;;;;;;;6167709;23;20391;-88
2023/09/16 02:06:04;;;;;;;9.93;6.60;;;;;;;;;;6169126;23;20388;-88
2023/09/16 02:08:29;;;;;;;8.80;7.50;;;;;;;;;;6166745;23;20455;-88
2023/09/16 02:10:55;;;;;;;9.83;7.17;;;;;;;;;;6172637;23;20860;-88
2023/09/16 02:13:24;;;;;;;9.90;7.80;;;;;;;;;;6190986;23;20814;-88
2023/09/16 02:15:50;;;;;;;8.50;6.67;;;;;;;;;;6170455;23;20384;-87
2023/09/16 02:18:16;;;;;;;10.83;7.43;;;;;;;;;;6166585;23;20387;-88
2023/09/16 02:20:43;;;;;;;7.27;6.53;;;;;;;;;;6170813;23;20175;-88
2023/09/16 02:23:09;;;;;;;9.50;6.60;;;;;;;;;;6166862;23;20456;-88
2023/09/16 02:25:35;;;;;;;12.43;8.97;;;;;;;;;;6169787;23;20387;-88
2023/09/16 02:28:01;;;;;;;9.50;7.37;;;;;;;;;;6165410;23;20384;-88
2023/09/16 02:30:27;;;;;;;10.17;7.67;;;;;;;;;;6192791;23;20743;-86
2023/09/16 02:32:53;;;;;;;10.03;7.97;;;;;;;;;;6166437;23;20446;-86
2023/09/16 02:35:19;;;;;;;10.03;7.90;;;;;;;;;;6170956;23;20408;-85
2023/09/16 02:37:45;;;;;;;8.27;7.27;;;;;;;;;;6190664;23;20390;-85
2023/09/16 02:40:11;;;;;;;12.00;9.03;;;;;;;;;;6201812;23;20348;-86
2023/09/16 02:42:37;;;;;;;8.20;6.73;;;;;;;;;;6166559;23;20375;-87
2023/09/16 02:45:03;;;;;;;13.63;8.27;;;;;;;;;;6167063;23;20407;-86
2023/09/16 02:47:29;;;;;;;10.10;8.60;;;;;;;;;;6165182;23;20387;-85
2023/09/16 02:49:55;;;;;;;9.47;7.63;;;;;;;;;;6192847;23;20457;-86
2023/09/16 02:52:21;;;;;;;8.90;7.27;;;;;;;;;;6165574;23;20400;-86
2023/09/16 02:54:47;;;;;;;8.97;6.90;;;;;;;;;;6167035;23;20386;-86
2023/09/16 02:57:13;;;;;;;10.50;8.73;;;;;;;;;;6166883;23;20868;-86
2023/09/16 02:59:39;;;;;;;12.17;9.10;;;;;;;;;;6169799;23;20395;-86
2023/09/16 03:02:05;;;;;;;9.57;8.20;;;;;;;;;;6165923;23;20438;-86
2023/09/16 03:04:31;;;;;;;8.20;7.13;;;;;;;;;;6170068;23;20486;-85
2023/09/16 03:06:57;;;;;;;10.37;8.50;;;;;;;;;;6167782;23;20440;-86
2023/09/16 03:09:23;;;;;;;11.67;7.23;;;;;;;;;;6192337;23;20368;-86
2023/09/16 03:11:49;;;;;;;12.40;7.60;;;;;;;;;;6167591;23;20997;-86
2023/09/16 03:14:32;;;;;;;11.27;7.47;;;;;;;;;;6169126;23;20432;-86
2023/09/16 03:16:58;;;;;;;9.00;7.27;;;;;;;;;;6192448;23;20391;-86
2023/09/16 03:19:28;;;;;;;8.77;7.63;;;;;;;;;;6189681;23;20399;-87
2023/09/16 03:21:54;;;;;;;10.00;7.73;;;;;;;;;;6165650;23;20464;-86
2023/09/16 03:24:20;;;;;;;11.70;7.70;;;;;;;;;;6167705;23;20842;-86
2023/09/16 03:26:46;;;;;;;10.27;9.03;;;;;;;;;;6166289;23;20372;-86
2023/09/16 03:29:12;;;;;;;9.67;8.00;;;;;;;;;;6168403;23;20376;-86
2023/09/16 03:31:38;;;;;;;9.53;8.53;;;;;;;;;;6168818;23;20447;-85
2023/09/16 03:34:04;;;;;;;10.20;7.83;;;;;;;;;;6191420;23;20416;-86
2023/09/16 03:36:30;;;;;;;8.40;7.50;;;;;;;;;;6166113;23;20401;-86
2023/09/16 03:38:56;;;;;;;8.80;7.10;;;;;;;;;;6166783;23;20403;-86
2023/09/16 03:41:23;;;;;;;7.80;6.70;;;;;;;;;;6169452;23;20380;-86
2023/09/16 03:43:49;;;;;;;8.27;6.57;;;;;;;;;;6165617;23;21199;-86
2023/09/16 03:46:15;;;;;;;11.17;7.73;;;;;;;;;;6168069;23;20463;-86
2023/09/16 03:48:41;;;;;;;10.20;6.73;;;;;;;;;;6165818;23;20407;-86
2023/09/16 03:51:07;;;;;;;8.53;7.60;;;;;;;;;;6199351;23;20407;-86
2023/09/16 03:53:34;;;;;;;13.70;7.47;;;;;;;;;;6166231;23;20450;-86
2023/09/16 03:56:00;;;;;;;9.23;6.87;;;;;;;;;;6166639;23;20376;-86
2023/09/16 03:58:26;;;;;;;8.97;7.03;;;;;;;;;;6167773;23;20388;-86
2023/09/16 04:00:52;;;;;;;11.47;7.00;;;;;;;;;;6195163;23;20364;-86
2023/09/16 04:03:19;;;;;;;8.93;7.83;;;;;;;;;;6190981;23;20406;-86
2023/09/16 04:05:45;;;;;;;11.50;8.67;;;;;;;;;;6192246;23;20412;-88
2023/09/16 04:08:11;;;;;;;10.70;8.03;;;;;;;;;;6166184;23;20840;-85
2023/09/16 04:10:37;;;;;;;9.80;7.77;;;;;;;;;;6169069;23;20422;-85
2023/09/16 04:13:03;;;;;;;9.37;7.50;;;;;;;;;;6166245;23;20420;-86
2023/09/16 04:15:29;;;;;;;7.60;6.80;;;;;;;;;;6169746;23;20922;-86
2023/09/16 04:17:55;;;;;;;10.67;7.73;;;;;;;;;;6165425;23;20379;-86
2023/09/16 04:20:24;;;;;;;8.27;7.47;;;;;;;;;;6166642;23;20895;-86
2023/09/16 04:22:50;;;;;;;9.80;7.67;;;;;;;;;;6189526;23;20368;-86
2023/09/16 04:25:16;;;;;;;10.20;7.37;;;;;;;;;;6172725;23;20387;-85
2023/09/16 04:27:42;;;;;;;13.10;8.17;;;;;;;;;;6165362;23;20387;-86
2023/09/16 04:30:08;;;;;;;12.77;8.17;;;;;;;;;;6193446;23;20360;-86
2023/09/16 04:32:35;;;;;;;13.43;8.20;;;;;;;;;;6163319;23;20432;-86
2023/09/16 04:35:01;;;;;;;12.10;8.37;;;;;;;;;;6167563;23;21037;-85
2023/09/16 04:37:27;;;;;;;12.43;8.33;;;;;;;;;;6164124;23;20418;-85
2023/09/16 04:39:53;;;;;;;10.97;9.50;;;;;;;;;;6191184;23;20384;-85
2023/09/16 04:42:20;;;;;;;11.40;8.70;;;;;;;;;;6164237;23;20418;-85
2023/09/16 04:44:48;;;;;;;10.17;8.90;;;;;;;;;;6165446;23;20364;-86
2023/09/16 04:47:14;;;;;;;9.50;8.50;;;;;;;;;;6166043;23;20414;-86
2023/09/16 04:49:40;;;;;;;12.33;8.90;;;;;;;;;;6169087;23;20404;-87
2023/09/16 04:52:06;;;;;;;11.83;7.50;;;;;;;;;;6164135;23;20394;-87
2023/09/16 04:54:38;;;;;;;11.13;7.90;;;;;;;;;;6196929;23;20472;-87
2023/09/16 04:57:04;;;;;;;9.17;8.10;;;;;;;;;;6139936;23;20379;-87
2023/09/16 04:59:33;;;;;;;15.27;8.83;;;;;;;;;;6168144;23;20860;-87
2023/09/16 05:01:59;;;;;;;7.90;6.60;;;;;;;;;;6165894;23;20376;-87
2023/09/16 05:04:26;;;;;;;10.10;7.60;;;;;;;;;;6167894;23;20438;-87
2023/09/16 05:06:52;;;;;;;12.30;8.47;;;;;;;;;;6166137;23;20768;-87
2023/09/16 05:09:19;;;;;;;10.90;8.03;;;;;;;;;;6167545;23;20726;-89
2023/09/16 05:11:45;;;;;;;9.27;7.40;;;;;;;;;;6164291;23;21143;-86
2023/09/16 05:14:11;;;;;;;8.80;7.60;;;;;;;;;;6169832;23;20936;-86
2023/09/16 05:16:37;;;;;;;12.27;8.27;;;;;;;;;;6190208;23;20443;-87
2023/09/16 05:19:04;;;;;;;11.97;8.70;;;;;;;;;;6172203;23;20406;-87
2023/09/16 05:21:29;;;;;;;9.87;8.87;;;;;;;;;;6188171;23;20379;-87
2023/09/16 05:23:55;;;;;;;9.40;8.20;;;;;;;;;;6171960;23;20443;-88
2023/09/16 05:26:21;;;;;;;10.57;8.97;;;;;;;;;;6166344;23;20440;-86
2023/09/16 05:28:48;;;;;;;13.13;9.20;;;;;;;;;;6172683;23;20411;-86
2023/09/16 05:31:14;;;;;;;12.27;9.33;;;;;;;;;;6161534;23;20426;-87
2023/09/16 05:33:40;;;;;;;11.10;8.93;;;;;;;;;;6167736;23;20435;-86
2023/09/16 05:36:06;;;;;;;12.77;9.73;;;;;;;;;;6165764;23;20384;-86
2023/09/16 05:38:32;;;;;;;14.73;9.20;;;;;;;;;;6172309;23;20854;-87
2023/09/16 05:40:59;;;;;;;10.80;8.67;;;;;;;;;;6167270;23;20372;-88
2023/09/16 05:43:25;;;;;;;12.70;9.23;;;;;;;;;;6171230;23;20388;-88
2023/09/16 05:45:51;;;;;;;11.40;8.47;;;;;;;;;;6165328;23;20877;-88
2023/09/16 05:48:18;;;;;;;15.37;9.67;;;;;;;;;;6195831;23;20376;-88
2023/09/16 05:50:44;;;;;;;12.90;9.97;;;;;;;;;;6171915;23;20439;-87
2023/09/16 05:53:10;;;;;;;12.17;10.60;;;;;;;;;;6170162;23;20961;-88
2023/09/16 05:55:39;;;;;;;13.93;11.17;;;;;;;;;;6172701;23;20379;-87
2023/09/16 05:58:08;;;;;;;13.87;8.70;;;;;;;;;;6196771;23;20421;-87
2023/09/16 06:00:34;;;;;;;13.70;10.20;;;;;;;;;;6166720;23;20434;-88
2023/09/16 06:03:00;;;;;;;14.60;11.17;;;;;;;;;;6175460;23;20962;-87
2023/09/16 06:05:29;;;;;;;15.97;10.63;;;;;;;;;;6167650;23;20474;-87
2023/09/16 06:07:55;;;;;;;15.30;11.50;;;;;;;;;;6170915;23;21081;-87
2023/09/16 06:10:21;;;;;;;18.33;12.37;;;;;;;;;;6193050;23;20376;-87
2023/09/16 06:12:47;;;;;;;55.63;38.80;;;;;;;;;;6166965;23;20427;-87
2023/09/16 06:15:13;;;;;;;20.63;16.33;;;;;;;;;;6167599;23;20855;-87
2023/09/16 06:17:39;;;;;;;15.97;12.80;;;;;;;;;;6168598;23;20372;-87
2023/09/16 06:20:05;;;;;;;17.87;11.13;;;;;;;;;;6191056;23;20383;-87
2023/09/16 06:22:31;;;;;;;19.87;12.80;;;;;;;;;;6168188;23;20368;-87
2023/09/16 06:24:57;;;;;;;17.57;13.77;;;;;;;;;;6170232;23;20407;-87
2023/09/16 06:27:26;;;;;;;15.67;12.90;;;;;;;;;;6168337;23;20407;-86
2023/09/16 06:29:52;;;;;;;14.90;11.30;;;;;;;;;;6189094;23;20356;-87
2023/09/16 06:32:19;;;;;;;17.57;12.97;;;;;;;;;;6168671;23;20360;-86
2023/09/16 06:34:45;;;;;;;22.13;13.30;;;;;;;;;;6191254;23;20384;-86
2023/09/16 06:37:11;;;;;;;17.97;12.60;;;;;;;;;;6165756;23;20442;-86
2023/09/16 06:39:39;;;;;;;14.33;11.57;;;;;;;;;;6168742;23;20385;-86
2023/09/16 06:42:05;;;;;;;23.40;12.40;;;;;;;;;;6167563;23;20392;-86
2023/09/16 06:44:31;;;;;;;18.30;12.40;;;;;;;;;;6167015;23;20380;-86
2023/09/16 06:46:57;;;;;;;14.97;12.20;;;;;;;;;;6168913;23;20388;-90
2023/09/16 06:49:23;;;;;;;21.70;15.10;;;;;;;;;;6140864;23;20509;-91
2023/09/16 06:51:49;;;;;;;18.17;11.73;;;;;;;;;;6138085;23;20861;-91
2023/09/16 06:54:15;;;;;;;12.80;10.20;;;;;;;;;;6144060;23;20428;-90
2023/09/16 06:56:41;;;;;;;15.53;10.57;;;;;;;;;;6140474;23;20388;-90
2023/09/16 06:59:07;;;;;;;14.47;10.37;;;;;;;;;;6141052;23;20381;-90
2023/09/16 07:01:34;;;;;;;13.50;10.63;;;;;;;;;;6140061;23;20369;-90
2023/09/16 07:04:00;;;;;;;14.83;11.43;;;;;;;;;;6142468;23;20373;-90
2023/09/16 07:06:28;;;;;;;12.10;10.27;;;;;;;;;;6141289;23;20487;-90
2023/09/16 07:08:57;;;;;;;15.70;11.10;;;;;;;;;;6152785;23;20786;-90
2023/09/16 07:11:23;;;;;;;13.97;11.30;;;;;;;;;;6140932;23;20484;-92
2023/09/16 07:13:50;;;;;;;12.13;9.50;;;;;;;;;;6114477;23;20424;-91
2023/09/16 07:16:16;;;;;;;11.33;10.00;;;;;;;;;;6135707;23;20378;-91
2023/09/16 07:18:42;;;;;;;11.07;9.50;;;;;;;;;;6116376;23;20429;-92
2023/09/16 07:21:08;;;;;;;11.27;9.30;;;;;;;;;;6139552;23;20380;-91
2023/09/16 07:23:34;;;;;;;9.00;7.70;;;;;;;;;;6145882;23;20384;-91
2023/09/16 07:26:00;;;;;;;12.00;8.00;;;;;;;;;;6143906;23;20497;-92
2023/09/16 07:28:27;;;;;;;10.73;9.27;;;;;;;;;;6146833;23;20392;-91
2023/09/16 07:30:53;;;;;;;11.27;8.47;;;;;;;;;;6145921;23;20376;-94
2023/09/16 07:33:19;;;;;;;11.73;10.50;;;;;;;;;;6085025;23;20524;-92
2023/09/16 07:35:45;;;;;;;17.63;9.40;;;;;;;;;;6058269;23;21053;-92
2023/09/16 08:17:08;;;;;;;12.30;10.43;;;;;;;;;;6245257;22;20422;-94
2023/09/16 08:19:34;;;;;;;11.93;10.10;;;;;;;;;;6207657;23;20371;-91
2023/09/16 08:22:04;;;;;;;11.40;10.20;;;;;;;;;;6210260;23;20725;-94
2023/09/16 08:24:30;;;;;;;10.50;9.40;;;;;;;;;;6183896;23;20382;-94
2023/09/16 08:26:56;;;;;;;11.83;10.20;;;;;;;;;;6211702;23;20358;-96
2023/09/16 08:29:22;;;;;;;10.93;9.73;;;;;;;;;;6210775;23;20869;-96
2023/09/16 08:31:48;;;;;;;11.27;9.23;;;;;;;;;;6210195;23;20386;-94
2023/09/16 08:34:14;;;;;;;11.80;9.37;;;;;;;;;;6209159;23;20762;-96
2023/09/16 12:58:25;;;;;;;3.40;2.83;;;;;;;;;;6258277;22;20440;-96
2023/09/16 13:00:57;;;;;;;2.50;2.30;;;;;;;;;;6261946;22;20374;-96
2023/09/16 13:03:24;;;;;;;2.60;2.00;;;;;;;;;;6207383;22;20382;-96
2023/09/16 13:05:59;;;;;;;2.87;2.57;;;;;;;;;;6209872;23;20380;-94
2023/09/16 13:08:32;;;;;;;2.77;2.47;;;;;;;;;;6207736;22;20389;-95
2023/09/16 13:11:01;;;;;;;5.53;2.70;;;;;;;;;;6209422;23;20365;-95
2023/09/16 13:13:30;;;;;;;2.70;2.23;;;;;;;;;;6209869;23;20416;-95
2023/09/16 13:15:57;;;;;;;2.77;2.50;;;;;;;;;;6234252;23;20389;-96
2023/09/16 13:18:24;;;;;;;3.23;2.27;;;;;;;;;;6209539;23;20849;-95
2023/09/16 13:20:54;;;;;;;2.30;1.80;;;;;;;;;;6204499;22;20453;-96
2023/09/16 13:23:53;;;;;;;2.67;2.47;;;;;;;;;;6212832;22;20370;-96
2023/09/16 13:26:20;;;;;;;3.30;2.80;;;;;;;;;;6142884;23;20385;-96
2023/09/16 13:28:52;;;;;;;3.03;2.73;;;;;;;;;;6142362;23;20388;-96
2023/09/16 13:31:24;;;;;;;3.07;2.37;;;;;;;;;;6140514;23;20388;-96
2023/09/16 13:34:00;;;;;;;2.93;2.50;;;;;;;;;;6146392;23;20440;-96
2023/09/16 13:36:32;;;;;;;3.37;3.07;;;;;;;;;;6145210;23;20388;-96
2023/09/16 13:39:00;;;;;;;3.13;2.83;;;;;;;;;;6146835;23;20377;-96
2023/09/16 13:41:26;;;;;;;3.17;2.77;;;;;;;;;;6144201;23;20385;-96
2023/09/16 13:43:52;;;;;;;3.03;2.73;;;;;;;;;;6147307;23;20397;-92
2023/09/16 13:46:18;;;;;;;3.77;2.87;;;;;;;;;;6143755;23;20373;-91
2023/09/16 13:48:47;;;;;;;4.40;2.80;;;;;;;;;;6138247;23;20389;-91
2023/09/16 13:51:13;;;;;;;3.30;3.00;;;;;;;;;;6138989;23;20389;-91
2023/09/16 13:53:39;;;;;;;4.23;2.57;;;;;;;;;;6137454;23;20842;-92
2023/09/16 13:56:08;;;;;;;3.00;2.37;;;;;;;;;;6150151;23;20165;-91
2023/09/16 13:58:34;;;;;;;3.20;2.90;;;;;;;;;;6141329;23;20389;-91
2023/09/16 14:01:02;;;;;;;4.20;3.30;;;;;;;;;;6139561;23;20799;-91
2023/09/16 14:03:28;;;;;;;2.70;2.50;;;;;;;;;;6227573;22;20417;-92
2023/09/16 14:05:54;;;;;;;2.77;2.53;;;;;;;;;;6205058;23;20424;-92
2023/09/16 14:08:20;;;;;;;4.10;2.40;;;;;;;;;;6233819;23;20429;-91
2023/09/16 14:10:46;;;;;;;2.70;2.50;;;;;;;;;;6205062;23;20377;-92
2023/09/16 14:13:12;;;;;;;3.53;3.23;;;;;;;;;;6207706;23;20426;-90
2023/09/16 14:15:39;;;;;;;3.00;2.70;;;;;;;;;;6203804;23;20393;-92
2023/09/16 14:18:05;;;;;;;6.23;2.97;;;;;;;;;;6210682;23;20508;-92
2023/09/16 14:20:31;;;;;;;3.10;2.77;;;;;;;;;;6204164;23;20437;-92
2023/09/16 14:22:58;;;;;;;2.67;2.40;;;;;;;;;;6209828;23;20406;-92
2023/09/16 14:25:25;;;;;;;2.97;2.67;;;;;;;;;;6203817;23;20386;-92
2023/09/16 14:30:31;;;;;;;4.07;2.73;;;;;;;;;;6248369;22;20514;-95
2023/09/16 14:32:57;;;;;;;3.70;3.30;;;;;;;;;;6234551;23;20486;-93
2023/09/16 14:35:25;;;;;;;3.30;2.87;;;;;;;;;;6206226;23;20378;-90
2023/09/16 14:37:53;;;;;;;2.87;2.60;;;;;;;;;;6209990;23;20359;-91
2023/09/16 14:40:19;;;;;;;5.73;2.97;;;;;;;;;;6210023;23;21187;-93
2023/09/16 14:42:45;;;;;;;3.60;3.30;;;;;;;;;;6210602;23;20738;-91
2023/09/16 14:45:11;;;;;;;4.40;2.50;;;;;;;;;;6208260;23;20397;-92
2023/09/16 14:47:37;;;;;;;3.50;3.07;;;;;;;;;;6210747;23;20742;-90
2023/09/16 14:50:03;;;;;;;2.53;2.33;;;;;;;;;;6208111;23;20436;-92
2023/09/16 14:52:30;;;;;;;3.50;3.20;;;;;;;;;;6209496;23;20543;-91
2023/09/16 14:54:57;;;;;;;3.40;2.97;;;;;;;;;;6208922;23;20441;-91
2023/09/16 14:59:59;;;;;;;3.20;2.80;;;;;;;;;;6257011;22;20417;-92
2023/09/16 15:02:25;;;;;;;3.23;2.93;;;;;;;;;;6207579;23;20465;-92
2023/09/16 15:36:13;;;;;;;3.20;2.90;;;;;;;;;;6263769;22;20511;-93
2023/09/16 15:38:39;;;;;;;3.13;2.83;;;;;;;;;;6235048;23;20398;-93
2023/09/16 15:41:06;;;;;;;3.23;2.63;;;;;;;;;;6206253;23;20398;-94
2023/09/16 15:43:32;;;;;;;2.70;2.40;;;;;;;;;;6209064;23;20383;-93
2023/09/16 15:46:03;;;;;;;5.43;2.67;;;;;;;;;;6206456;23;20415;-91
2023/09/16 15:48:29;;;;;;;2.77;2.53;;;;;;;;;;6207953;23;21028;-93
2023/09/16 15:50:56;;;;;;;3.17;2.73;;;;;;;;;;6207997;23;20395;-92
2023/09/16 15:53:30;;;;;;;4.13;3.17;;;;;;;;;;6212089;23;20434;-96
2023/09/16 15:55:57;;;;;;;2.77;2.47;;;;;;;;;;6235442;23;20374;-95
2023/09/16 15:58:24;;;;;;;3.27;2.70;;;;;;;;;;6212404;23;20390;-93
2023/09/16 16:08:55;;;;;;;3.73;2.57;;;;;;;;;;6292446;22;20440;-93
2023/09/16 16:11:26;;;;;;;3.63;2.70;;;;;;;;;;6239360;22;20401;-91
2023/09/16 16:48:29;;;;;;;3.67;3.20;;;;;;;;;;6254650;22;20497;-91
2023/09/16 16:50:55;;;;;;;3.20;2.90;;;;;;;;;;6205254;23;20402;-92
2023/09/16 16:53:21;;;;;;;4.77;3.43;;;;;;;;;;6170019;23;20989;-93
2023/09/16 16:55:53;;;;;;;6.50;3.40;;;;;;;;;;6145507;23;20396;-94
2023/09/16 16:58:20;;;;;;;3.60;3.00;;;;;;;;;;6172037;23;20367;-92
2023/09/16 17:00:46;;;;;;;4.00;3.00;;;;;;;;;;6144112;23;20454;-92
2023/09/16 17:03:12;;;;;;;4.17;3.60;;;;;;;;;;6171748;23;20407;-92
2023/09/16 17:05:38;;;;;;;4.83;3.73;;;;;;;;;;6144810;23;20404;-92
2023/09/16 17:13:16;;;;;;;3.97;3.33;;;;;;;;;;6290217;22;20442;-92
2023/09/16 17:15:43;;;;;;;3.63;3.33;;;;;;;;;;6236740;22;20392;-92
2023/09/16 17:18:12;;;;;;;5.50;4.80;;;;;;;;;;6238942;22;20455;-92
2023/09/16 17:20:38;;;;;;;6.80;5.87;;;;;;;;;;6260921;22;20416;-92
2023/09/16 17:23:04;;;;;;;5.30;4.80;;;;;;;;;;6237082;22;20716;-92
2023/09/16 17:25:30;;;;;;;6.03;4.57;;;;;;;;;;6233350;22;20460;-93
2023/09/16 17:27:56;;;;;;;7.90;5.90;;;;;;;;;;6237547;22;20404;-92
2023/09/16 17:30:22;;;;;;;5.70;4.97;;;;;;;;;;6234011;22;20687;-93
2023/09/16 17:32:56;;;;;;;7.47;4.10;;;;;;;;;;6237162;22;20733;-93
2023/09/16 17:35:22;;;;;;;9.53;4.20;;;;;;;;;;6235958;22;20384;-92
2023/09/16 17:37:51;;;;;;;4.50;4.07;;;;;;;;;;6242877;22;20408;-93
2023/09/16 17:40:17;;;;;;;7.23;5.73;;;;;;;;;;6263354;22;20385;-93
2023/09/16 17:42:43;;;;;;;6.57;4.23;;;;;;;;;;6237575;22;20408;-92
2023/09/16 17:45:10;;;;;;;5.60;4.90;;;;;;;;;;6239677;22;20357;-93
2023/09/16 17:47:36;;;;;;;7.07;5.40;;;;;;;;;;6235018;22;20381;-92
2023/09/16 17:50:02;;;;;;;6.47;5.47;;;;;;;;;;6235156;22;20362;-92
2023/09/16 17:52:28;;;;;;;6.80;6.07;;;;;;;;;;6236424;22;20393;-90
2023/09/16 17:54:55;;;;;;;6.90;6.20;;;;;;;;;;6231894;22;20945;-91
2023/09/16 17:57:24;;;;;;;8.70;7.17;;;;;;;;;;6233933;22;20392;-90
2023/09/16 17:59:50;;;;;;;7.43;5.83;;;;;;;;;;6232708;22;20431;-91
2023/09/16 18:02:16;;;;;;;7.67;6.60;;;;;;;;;;6234243;22;20401;-91
2023/09/16 18:04:42;;;;;;;6.03;5.37;;;;;;;;;;6229877;22;20407;-91
2023/09/16 18:07:09;;;;;;;6.17;5.37;;;;;;;;;;6236864;22;20690;-91
2023/09/16 18:09:35;;;;;;;6.53;5.57;;;;;;;;;;6231560;22;20386;-90
2023/09/16 18:12:01;;;;;;;4.70;4.20;;;;;;;;;;6238391;22;20400;-91
2023/09/16 18:14:27;;;;;;;6.37;5.73;;;;;;;;;;6232493;22;20433;-91
2023/09/16 18:16:53;;;;;;;7.50;5.70;;;;;;;;;;6233683;22;20384;-90
2023/09/16 18:19:19;;;;;;;6.50;5.60;;;;;;;;;;6231451;22;20408;-90
2023/09/16 18:21:46;;;;;;;8.00;5.43;;;;;;;;;;6255691;22;20411;-91
2023/09/16 18:24:12;;;;;;;8.40;6.03;;;;;;;;;;6229953;22;20809;-90
2023/09/16 18:26:38;;;;;;;7.03;6.33;;;;;;;;;;6255993;22;20372;-90
2023/09/16 18:29:06;;;;;;;6.93;6.33;;;;;;;;;;6230739;22;20436;-90
2023/09/16 18:31:32;;;;;;;9.83;6.60;;;;;;;;;;6196038;23;20399;-90
2023/09/16 18:33:59;;;;;;;7.30;6.03;;;;;;;;;;6167197;23;20457;-90
2023/09/16 18:36:27;;;;;;;7.23;5.43;;;;;;;;;;6174434;23;20526;-90
2023/09/16 18:38:54;;;;;;;8.00;6.37;;;;;;;;;;6173368;23;20383;-91
2023/09/16 18:41:22;;;;;;;7.83;6.13;;;;;;;;;;6172140;23;20426;-91
2023/09/16 18:43:51;;;;;;;8.40;6.30;;;;;;;;;;6225004;23;20371;-91
2023/09/16 18:46:17;;;;;;;13.40;7.30;;;;;;;;;;6181500;23;20399;-92
2023/09/16 18:48:43;;;;;;;7.73;6.13;;;;;;;;;;6168571;23;20395;-92
2023/09/16 18:51:10;;;;;;;7.43;6.70;;;;;;;;;;6199180;23;20367;-91
2023/09/16 18:53:38;;;;;;;8.00;6.93;;;;;;;;;;6171298;23;20445;-92
2023/09/16 18:56:04;;;;;;;6.80;6.20;;;;;;;;;;6173837;23;20397;-92
2023/09/16 18:58:30;;;;;;;6.83;5.60;;;;;;;;;;6169925;23;20387;-91
2023/09/16 19:00:56;;;;;;;8.03;6.50;;;;;;;;;;6177048;23;20371;-91
2023/09/16 19:03:22;;;;;;;8.10;6.57;;;;;;;;;;6172494;23;20367;-91
2023/09/16 19:05:48;;;;;;;7.37;6.67;;;;;;;;;;6174138;23;20504;-91
2023/09/16 19:08:14;;;;;;;7.93;6.63;;;;;;;;;;6170275;23;20379;-91
2023/09/16 19:10:44;;;;;;;8.93;7.80;;;;;;;;;;6176725;23;20383;-91
2023/09/16 19:13:10;;;;;;;7.57;6.77;;;;;;;;;;6169318;23;20435;-91
2023/09/16 19:15:37;;;;;;;7.87;7.07;;;;;;;;;;6173539;23;20386;-91
2023/09/16 19:18:03;;;;;;;7.40;6.23;;;;;;;;;;6170671;23;20854;-90
2023/09/16 19:20:34;;;;;;;6.97;6.00;;;;;;;;;;6178030;23;20399;-91
2023/09/16 19:23:01;;;;;;;8.33;6.53;;;;;;;;;;6238753;22;20389;-91
2023/09/16 19:25:27;;;;;;;8.50;6.97;;;;;;;;;;6258470;22;20375;-90
2023/09/16 19:27:53;;;;;;;7.30;6.53;;;;;;;;;;6233946;22;20389;-91
2023/09/16 19:30:19;;;;;;;6.80;6.20;;;;;;;;;;6231735;22;20385;-91
2023/09/16 19:32:45;;;;;;;7.13;6.43;;;;;;;;;;6235176;22;20962;-91
2023/09/16 19:35:12;;;;;;;8.37;7.40;;;;;;;;;;6235734;22;20388;-92
2023/09/16 19:37:38;;;;;;;7.53;6.73;;;;;;;;;;6233468;22;20393;-91
2023/09/16 19:40:04;;;;;;;8.80;7.07;;;;;;;;;;6234987;22;20392;-92
2023/09/16 19:42:32;;;;;;;7.20;6.50;;;;;;;;;;6237706;22;20385;-92
2023/09/16 19:44:59;;;;;;;8.40;7.23;;;;;;;;;;6256833;22;20376;-90
2023/09/16 19:47:25;;;;;;;8.27;6.27;;;;;;;;;;6236570;22;20395;-92
2023/09/16 19:49:51;;;;;;;7.80;7.10;;;;;;;;;;6231154;22;20840;-90
2023/09/16 19:52:19;;;;;;;6.80;5.80;;;;;;;;;;6241472;22;20386;-91
2023/09/16 19:54:45;;;;;;;6.40;5.80;;;;;;;;;;6230989;22;20439;-91
2023/09/16 19:57:11;;;;;;;8.60;5.93;;;;;;;;;;6195212;23;20410;-91
2023/09/16 19:59:37;;;;;;;7.00;6.30;;;;;;;;;;6170118;23;20410;-90
2023/09/16 20:02:03;;;;;;;6.00;5.40;;;;;;;;;;6169016;23;20485;-91
2023/09/16 20:04:29;;;;;;;6.30;5.70;;;;;;;;;;6169889;23;20403;-90
2023/09/16 20:06:56;;;;;;;7.73;6.93;;;;;;;;;;6174273;23;20706;-91
2023/09/16 20:09:22;;;;;;;8.77;7.03;;;;;;;;;;6171264;23;20391;-92
2023/09/16 20:11:48;;;;;;;7.30;6.57;;;;;;;;;;6173395;23;20395;-92
2023/09/16 20:14:14;;;;;;;7.33;6.60;;;;;;;;;;6170904;23;20426;-92
2023/09/16 20:16:40;;;;;;;7.20;6.23;;;;;;;;;;6174392;23;20379;-92
2023/09/16 20:19:07;;;;;;;7.53;5.93;;;;;;;;;;6175382;23;20504;-92
2023/09/16 20:21:33;;;;;;;8.40;6.77;;;;;;;;;;6171572;23;20394;-91
2023/09/16 20:23:59;;;;;;;8.37;6.03;;;;;;;;;;6178921;23;20378;-91
2023/09/16 20:26:25;;;;;;;8.83;7.30;;;;;;;;;;6173072;23;20387;-91
2023/09/16 20:28:51;;;;;;;8.90;5.83;;;;;;;;;;6219802;22;20395;-92
2023/09/16 20:31:17;;;;;;;8.20;6.23;;;;;;;;;;6236652;22;20372;-92
2023/09/16 20:33:43;;;;;;;9.23;7.73;;;;;;;;;;6232643;22;20424;-91
2023/09/16 20:36:09;;;;;;;7.23;5.60;;;;;;;;;;6233199;22;20384;-89
2023/09/16 20:38:35;;;;;;;6.40;5.43;;;;;;;;;;6231189;22;20385;-90
2023/09/16 20:41:01;;;;;;;6.93;6.07;;;;;;;;;;6235519;22;20372;-89
2023/09/16 20:43:27;;;;;;;6.40;5.80;;;;;;;;;;6233404;22;20385;-90
2023/09/16 20:45:54;;;;;;;6.00;5.40;;;;;;;;;;6234123;22;20891;-90
2023/09/16 20:48:20;;;;;;;6.20;5.37;;;;;;;;;;6259810;22;20373;-89
2023/09/16 20:50:46;;;;;;;5.93;4.80;;;;;;;;;;6237001;22;20706;-91
2023/09/16 20:53:13;;;;;;;13.73;5.40;;;;;;;;;;6259350;22;20458;-90
2023/09/16 20:55:39;;;;;;;9.73;6.13;;;;;;;;;;6241124;22;20447;-90
2023/09/16 20:58:05;;;;;;;6.97;5.70;;;;;;;;;;6234012;22;20389;-90
2023/09/16 21:00:31;;;;;;;8.33;6.53;;;;;;;;;;6236179;22;20373;-90